Terminal Aerodrome Forecast
Issued by NWS Wilmington, OH

Current Version | Previous Version | Text Only | Print | Product List | Glossary Off
Versions: 1 2 3 4 5 6 7 8 9 10 11 12 13 14 15 16 17 18 19 20

000
FTUS41 KILN 301100
TAFDAY
TAF
KDAY 301132Z 3012/3112 16007KT P6SM SCT200
     FM301500 21012G20KT P6SM SCT050 SCT120
     FM302000 21015KT P6SM VCTS SCT040CB BKN110
     FM310100 22011KT P6SM -SHRA VCTS SCT030CB OVC100
     FM310900 21010KT 5SM -SHRA BR VCTS OVC015CB=

USA.gov is the U.S. government's official web portal to all federal, state and local government web resources and services.